Time;durP1;ratioP1;P1;durP2;ratioP2;P2;SDS_P1;SDS_P2;PMS_P1;PMS_P2;Temp;Humidity;BMP_temperature;BMP_pressure;BME280_temperature;BME280_humidity;BME280_pressure;Samples;Min_cycle;Max_cycle;Signal;HPM_P1;HPM_P2
2024/02/21 00:01:39;;;;;;;30.85;6.05;;;;;;;;;;5080243;28;20024;-64
2024/02/21 00:04:05;;;;;;;25.08;6.50;;;;;;;;;;5075813;28;20033;-64
2024/02/21 00:06:32;;;;;;;15.18;5.78;;;;;;;;;;5075489;28;20124;-64
2024/02/21 00:08:58;;;;;;;18.98;5.60;;;;;;;;;;5078174;28;20119;-64
2024/02/21 00:11:24;;;;;;;18.05;6.32;;;;;;;;;;5075248;28;20512;-63
2024/02/21 00:13:52;;;;;;;17.65;5.15;;;;;;;;;;5075019;28;20028;-64
2024/02/21 00:16:18;;;;;;;15.70;5.68;;;;;;;;;;5074945;28;20566;-65
2024/02/21 00:18:44;;;;;;;22.67;5.53;;;;;;;;;;5075313;28;20111;-63
2024/02/21 00:21:14;;;;;;;21.05;5.50;;;;;;;;;;5079340;28;20103;-65
2024/02/21 00:23:41;;;;;;;22.00;6.00;;;;;;;;;;5077955;28;20091;-64
2024/02/21 00:26:07;;;;;;;19.02;5.40;;;;;;;;;;5074538;28;20020;-65
2024/02/21 00:28:33;;;;;;;16.67;5.35;;;;;;;;;;5077516;28;20090;-64
2024/02/21 00:30:59;;;;;;;21.73;6.55;;;;;;;;;;5075439;28;20465;-64
2024/02/21 00:33:25;;;;;;;20.02;6.03;;;;;;;;;;5078438;28;20551;-64
2024/02/21 00:35:51;;;;;;;18.23;5.85;;;;;;;;;;5077402;28;20028;-64
2024/02/21 00:38:17;;;;;;;22.02;6.03;;;;;;;;;;5073228;28;20502;-64
2024/02/21 00:40:43;;;;;;;16.70;5.82;;;;;;;;;;5078171;28;20054;-64
2024/02/21 00:43:09;;;;;;;23.60;7.18;;;;;;;;;;5074309;28;20103;-64
2024/02/21 00:45:35;;;;;;;18.45;5.63;;;;;;;;;;5080135;28;20070;-64
2024/02/21 00:48:00;;;;;;;20.20;5.60;;;;;;;;;;5075492;28;20031;-65
2024/02/21 00:50:26;;;;;;;13.13;5.95;;;;;;;;;;5075402;28;20107;-64
2024/02/21 00:52:52;;;;;;;26.02;6.18;;;;;;;;;;5076614;28;20031;-65
2024/02/21 00:55:18;;;;;;;31.35;7.97;;;;;;;;;;5074337;28;20035;-64
2024/02/21 00:57:44;;;;;;;34.03;7.22;;;;;;;;;;5080017;28;20401;-64
2024/02/21 01:00:10;;;;;;;27.10;6.60;;;;;;;;;;5075216;28;20029;-63
2024/02/21 01:02:36;;;;;;;23.15;6.45;;;;;;;;;;5074454;28;20021;-65
2024/02/21 01:05:03;;;;;;;16.88;5.85;;;;;;;;;;5072196;28;20560;-63
2024/02/21 01:07:28;;;;;;;16.63;6.68;;;;;;;;;;5072551;28;20081;-63
2024/02/21 01:09:55;;;;;;;25.55;6.50;;;;;;;;;;5072263;28;20080;-64
2024/02/21 01:12:21;;;;;;;17.90;6.25;;;;;;;;;;5071705;28;20017;-64
2024/02/21 01:14:47;;;;;;;18.73;6.57;;;;;;;;;;5076208;28;20519;-64
2024/02/21 01:17:13;;;;;;;28.48;6.70;;;;;;;;;;5070098;28;20036;-64
2024/02/21 01:19:39;;;;;;;19.38;6.63;;;;;;;;;;5069664;28;20027;-62
2024/02/21 01:22:05;;;;;;;22.80;5.95;;;;;;;;;;5074301;28;20109;-63
2024/02/21 01:24:31;;;;;;;19.33;6.40;;;;;;;;;;5073810;28;20032;-62
2024/02/21 01:26:57;;;;;;;23.15;6.07;;;;;;;;;;5070923;28;20052;-62
2024/02/21 01:29:22;;;;;;;24.83;6.03;;;;;;;;;;5076917;28;20028;-63
2024/02/21 01:31:48;;;;;;;26.35;6.97;;;;;;;;;;5083234;28;20077;-63
2024/02/21 01:34:14;;;;;;;22.38;6.15;;;;;;;;;;5067965;28;20074;-62
2024/02/21 01:36:41;;;;;;;32.03;6.10;;;;;;;;;;5064489;28;20036;-62
2024/02/21 01:39:07;;;;;;;14.43;5.10;;;;;;;;;;5060742;28;20032;-64
2024/02/21 01:41:33;;;;;;;24.73;6.80;;;;;;;;;;5061577;28;20024;-64
2024/02/21 01:43:59;;;;;;;24.00;6.70;;;;;;;;;;5062615;28;20025;-64
2024/02/21 01:46:30;;;;;;;18.10;5.28;;;;;;;;;;5059525;28;20100;-63
2024/02/21 01:48:56;;;;;;;15.30;6.22;;;;;;;;;;5060973;28;20066;-64
2024/02/21 01:51:22;;;;;;;27.63;7.40;;;;;;;;;;5062714;28;20074;-64
2024/02/21 01:53:50;;;;;;;16.75;6.05;;;;;;;;;;5040258;28;20387;-63
2024/02/21 01:56:16;;;;;;;18.17;6.15;;;;;;;;;;5059033;28;20050;-63
2024/02/21 01:58:43;;;;;;;22.90;5.97;;;;;;;;;;5062201;28;20435;-62
2024/02/21 02:01:10;;;;;;;25.38;6.25;;;;;;;;;;5062213;28;20104;-63
2024/02/21 02:03:36;;;;;;;20.73;5.78;;;;;;;;;;5061051;28;20036;-62
2024/02/21 02:06:02;;;;;;;19.60;5.85;;;;;;;;;;5062672;28;20028;-63
2024/02/21 02:08:28;;;;;;;23.90;5.72;;;;;;;;;;5064801;28;20038;-63
2024/02/21 02:10:54;;;;;;;22.25;5.20;;;;;;;;;;5071238;28;20077;-63
2024/02/21 02:13:20;;;;;;;20.70;6.70;;;;;;;;;;5068732;28;20028;-63
2024/02/21 02:15:47;;;;;;;21.77;6.53;;;;;;;;;;5071005;28;20055;-63
2024/02/21 02:18:14;;;;;;;24.90;6.32;;;;;;;;;;5072826;28;20103;-64
2024/02/21 02:20:40;;;;;;;25.05;6.63;;;;;;;;;;5067877;28;20032;-62
2024/02/21 02:23:13;;;;;;;19.08;7.15;;;;;;;;;;5055423;28;20032;-64
2024/02/21 02:25:39;;;;;;;31.58;7.15;;;;;;;;;;5071291;28;20118;-65
2024/02/21 02:28:08;;;;;;;25.67;6.78;;;;;;;;;;5074315;28;20054;-63
2024/02/21 02:30:36;;;;;;;30.08;7.47;;;;;;;;;;5069904;28;20082;-64
2024/02/21 02:33:02;;;;;;;26.70;6.80;;;;;;;;;;5069762;28;20020;-64
2024/02/21 02:35:28;;;;;;;21.58;6.72;;;;;;;;;;5069619;28;20024;-64
2024/02/21 02:37:54;;;;;;;28.17;7.45;;;;;;;;;;5073847;28;20458;-63
2024/02/21 02:40:20;;;;;;;19.63;6.30;;;;;;;;;;5065777;28;20055;-63
2024/02/21 02:42:46;;;;;;;19.63;5.78;;;;;;;;;;5068335;28;20433;-63
2024/02/21 02:45:12;;;;;;;30.95;7.60;;;;;;;;;;5071478;28;20059;-63
2024/02/21 02:47:40;;;;;;;18.52;6.70;;;;;;;;;;5070410;28;20029;-62
2024/02/21 02:50:06;;;;;;;31.83;7.63;;;;;;;;;;5072385;28;20032;-64
2024/02/21 02:52:32;;;;;;;25.75;7.38;;;;;;;;;;5070238;28;20024;-63
2024/02/21 02:54:58;;;;;;;24.23;6.22;;;;;;;;;;5059066;28;20497;-61
2024/02/21 02:57:24;;;;;;;23.35;6.40;;;;;;;;;;5066964;28;20111;-63
2024/02/21 02:59:50;;;;;;;19.92;5.80;;;;;;;;;;5070968;28;20455;-61
2024/02/21 03:02:17;;;;;;;15.60;5.80;;;;;;;;;;5069255;28;20032;-64
2024/02/21 03:04:43;;;;;;;22.65;6.28;;;;;;;;;;5069888;28;20028;-63
2024/02/21 03:07:11;;;;;;;21.58;6.38;;;;;;;;;;5067416;28;20033;-63
2024/02/21 03:09:37;;;;;;;16.30;6.07;;;;;;;;;;5069272;28;20095;-64
2024/02/21 03:12:03;;;;;;;30.98;6.60;;;;;;;;;;5071484;28;20425;-63
2024/02/21 03:14:29;;;;;;;25.95;7.32;;;;;;;;;;5066224;28;20035;-64
2024/02/21 03:16:56;;;;;;;19.73;6.57;;;;;;;;;;5069173;28;20032;-63
2024/02/21 03:19:22;;;;;;;25.90;6.05;;;;;;;;;;5069883;28;20604;-63
2024/02/21 03:21:49;;;;;;;20.55;6.18;;;;;;;;;;5056515;28;20046;-63
2024/02/21 03:24:15;;;;;;;21.05;6.15;;;;;;;;;;5066982;28;20016;-64
2024/02/21 03:26:41;;;;;;;16.88;5.68;;;;;;;;;;5064952;28;20025;-64
2024/02/21 03:29:08;;;;;;;14.63;5.60;;;;;;;;;;5067090;28;20090;-63
2024/02/21 03:31:34;;;;;;;22.42;5.93;;;;;;;;;;5069703;28;20036;-63
2024/02/21 03:34:00;;;;;;;20.60;5.85;;;;;;;;;;5067476;28;20234;-63
2024/02/21 03:36:26;;;;;;;26.15;7.25;;;;;;;;;;5070302;28;20055;-63
2024/02/21 03:38:52;;;;;;;15.38;4.88;;;;;;;;;;5068973;28;20033;-63
2024/02/21 03:41:18;;;;;;;19.95;6.32;;;;;;;;;;5065366;28;20036;-63
2024/02/21 03:43:44;;;;;;;19.85;5.80;;;;;;;;;;5065698;28;20124;-63
2024/02/21 03:46:10;;;;;;;13.82;5.47;;;;;;;;;;5067317;28;20021;-62
2024/02/21 03:48:36;;;;;;;28.30;5.18;;;;;;;;;;5072393;28;20040;-63
2024/02/21 03:51:02;;;;;;;15.13;5.03;;;;;;;;;;5069363;28;20432;-64
2024/02/21 03:53:28;;;;;;;22.48;5.68;;;;;;;;;;5074240;28;20059;-63
2024/02/21 03:55:55;;;;;;;21.70;6.05;;;;;;;;;;5066017;28;20078;-63
2024/02/21 03:58:21;;;;;;;18.35;6.40;;;;;;;;;;5070970;28;20078;-63
2024/02/21 04:00:47;;;;;;;22.35;5.50;;;;;;;;;;5073740;28;20044;-63
2024/02/21 04:03:13;;;;;;;25.30;5.97;;;;;;;;;;5068356;28;20087;-63
2024/02/21 04:05:39;;;;;;;24.55;6.95;;;;;;;;;;5064521;28;20529;-63
2024/02/21 04:08:05;;;;;;;42.88;6.85;;;;;;;;;;5068592;28;20454;-64
2024/02/21 04:10:31;;;;;;;24.20;7.38;;;;;;;;;;5068129;28;20032;-63
2024/02/21 04:12:57;;;;;;;24.73;7.22;;;;;;;;;;5071664;28;20028;-63
2024/02/21 04:15:23;;;;;;;29.50;6.45;;;;;;;;;;5064133;28;20025;-64
2024/02/21 04:17:50;;;;;;;26.65;7.53;;;;;;;;;;5072180;28;20096;-63
2024/02/21 04:20:17;;;;;;;28.58;7.97;;;;;;;;;;5078067;28;20020;-64
2024/02/21 04:22:46;;;;;;;21.92;6.65;;;;;;;;;;5067863;28;20039;-64
2024/02/21 04:25:12;;;;;;;18.65;6.20;;;;;;;;;;5067592;28;20041;-63
2024/02/21 04:27:39;;;;;;;25.10;7.22;;;;;;;;;;5074865;28;20027;-63
2024/02/21 04:30:05;;;;;;;14.77;5.75;;;;;;;;;;5079270;28;20017;-64
2024/02/21 04:32:31;;;;;;;20.27;5.78;;;;;;;;;;5085490;28;20017;-64
2024/02/21 04:34:57;;;;;;;26.92;6.78;;;;;;;;;;5084011;28;20105;-63
2024/02/21 04:37:24;;;;;;;22.23;6.47;;;;;;;;;;5091827;28;20455;-64
2024/02/21 04:39:50;;;;;;;20.17;5.95;;;;;;;;;;5079466;28;20115;-63
2024/02/21 04:42:16;;;;;;;17.35;6.43;;;;;;;;;;5081815;28;20041;-64
2024/02/21 04:44:42;;;;;;;24.23;5.32;;;;;;;;;;5075566;28;20107;-65
2024/02/21 04:47:08;;;;;;;19.17;5.45;;;;;;;;;;5061553;28;20084;-65
2024/02/21 04:49:34;;;;;;;20.25;6.07;;;;;;;;;;5084665;28;20060;-65
2024/02/21 04:52:00;;;;;;;16.63;5.25;;;;;;;;;;5081222;28;20070;-66
2024/02/21 04:54:27;;;;;;;24.75;6.75;;;;;;;;;;5077245;28;20031;-65
2024/02/21 04:56:52;;;;;;;28.88;5.75;;;;;;;;;;5070750;28;20032;-63
2024/02/21 04:59:18;;;;;;;15.93;5.20;;;;;;;;;;5068398;28;20024;-64
2024/02/21 05:01:44;;;;;;;21.42;5.50;;;;;;;;;;5070553;28;20025;-63
2024/02/21 05:04:10;;;;;;;19.50;5.53;;;;;;;;;;5064806;28;20471;-64
2024/02/21 05:06:40;;;;;;;16.40;5.78;;;;;;;;;;5070640;28;20031;-64
2024/02/21 05:09:06;;;;;;;18.98;5.18;;;;;;;;;;5073328;28;20032;-63
2024/02/21 05:11:32;;;;;;;15.13;6.18;;;;;;;;;;5068458;28;20367;-64
2024/02/21 05:13:58;;;;;;;16.88;5.25;;;;;;;;;;5079140;28;20048;-63
2024/02/21 05:16:24;;;;;;;22.63;5.68;;;;;;;;;;5083699;28;20446;-65
2024/02/21 05:18:50;;;;;;;19.83;5.68;;;;;;;;;;5083953;28;20446;-65
2024/02/21 05:21:16;;;;;;;18.63;5.70;;;;;;;;;;5076087;28;20433;-64
2024/02/21 05:23:42;;;;;;;22.90;6.32;;;;;;;;;;5086113;28;20487;-64
2024/02/21 05:26:08;;;;;;;21.70;5.43;;;;;;;;;;5076698;28;20108;-65
2024/02/21 05:28:34;;;;;;;23.45;5.90;;;;;;;;;;5092412;28;20029;-65
2024/02/21 05:31:01;;;;;;;20.00;7.22;;;;;;;;;;5063494;28;20146;-64
2024/02/21 05:33:27;;;;;;;26.35;6.40;;;;;;;;;;5073539;28;20061;-65
2024/02/21 05:35:53;;;;;;;16.70;5.10;;;;;;;;;;5078488;28;20028;-65
2024/02/21 05:38:19;;;;;;;16.88;5.35;;;;;;;;;;5077385;28;20107;-63
2024/02/21 05:40:45;;;;;;;19.40;6.10;;;;;;;;;;5077172;28;20127;-64
2024/02/21 05:43:11;;;;;;;21.42;5.50;;;;;;;;;;5079092;28;20048;-65
2024/02/21 05:45:37;;;;;;;17.90;5.65;;;;;;;;;;5079702;28;20051;-65
2024/02/21 05:48:06;;;;;;;17.73;5.55;;;;;;;;;;5080517;28;20038;-63
2024/02/21 05:50:32;;;;;;;21.42;5.82;;;;;;;;;;5072596;28;20024;-64
2024/02/21 05:52:59;;;;;;;17.05;6.50;;;;;;;;;;5067744;28;20037;-65
2024/02/21 05:55:25;;;;;;;20.35;5.93;;;;;;;;;;5070415;28;20083;-63
2024/02/21 05:57:55;;;;;;;22.65;5.28;;;;;;;;;;5071081;28;20071;-63
2024/02/21 06:00:21;;;;;;;15.63;5.88;;;;;;;;;;5068968;28;20024;-64
2024/02/21 06:02:47;;;;;;;19.33;5.72;;;;;;;;;;5067257;28;20112;-64
2024/02/21 06:05:13;;;;;;;26.85;5.55;;;;;;;;;;5065406;28;20553;-65
2024/02/21 06:07:39;;;;;;;19.63;5.65;;;;;;;;;;5063426;28;20492;-63
2024/02/21 06:10:05;;;;;;;15.98;5.18;;;;;;;;;;5072740;28;20082;-63
2024/02/21 06:12:31;;;;;;;25.52;6.05;;;;;;;;;;5066854;28;20068;-65
2024/02/21 06:14:57;;;;;;;23.83;5.13;;;;;;;;;;5068755;28;20063;-63
2024/02/21 06:17:23;;;;;;;17.65;5.72;;;;;;;;;;5065450;28;20037;-64
2024/02/21 06:19:49;;;;;;;18.92;6.07;;;;;;;;;;5070156;28;20032;-64
2024/02/21 06:22:15;;;;;;;17.40;5.72;;;;;;;;;;5071901;28;20390;-65
2024/02/21 06:24:41;;;;;;;16.30;5.30;;;;;;;;;;5069701;28;20553;-64
2024/02/21 06:27:07;;;;;;;19.65;6.13;;;;;;;;;;5071698;28;20032;-65
2024/02/21 06:29:33;;;;;;;18.75;5.82;;;;;;;;;;5071182;28;20028;-64
2024/02/21 06:32:00;;;;;;;19.10;6.20;;;;;;;;;;5065648;28;20024;-65
2024/02/21 06:34:26;;;;;;;16.67;5.88;;;;;;;;;;5066119;28;20028;-64
2024/02/21 06:36:52;;;;;;;22.88;6.40;;;;;;;;;;5061856;28;20435;-63
2024/02/21 06:39:18;;;;;;;12.27;5.60;;;;;;;;;;5064398;28;20021;-65
2024/02/21 06:41:44;;;;;;;21.05;5.75;;;;;;;;;;5063126;28;20482;-64
2024/02/21 06:44:10;;;;;;;13.50;5.30;;;;;;;;;;5072858;28;20029;-64
2024/02/21 06:46:36;;;;;;;15.93;5.63;;;;;;;;;;5070710;28;20478;-65
2024/02/21 06:49:03;;;;;;;14.85;5.50;;;;;;;;;;5075493;28;20029;-65
2024/02/21 06:51:30;;;;;;;21.27;6.25;;;;;;;;;;5069989;28;20023;-64
2024/02/21 06:53:56;;;;;;;18.33;5.32;;;;;;;;;;5064401;28;20076;-64
2024/02/21 06:56:28;;;;;;;17.58;5.65;;;;;;;;;;5068211;28;20052;-64
2024/02/21 06:58:57;;;;;;;21.17;5.45;;;;;;;;;;5069011;28;20017;-64
2024/02/21 07:01:24;;;;;;;25.15;5.72;;;;;;;;;;5066980;28;20090;-63
2024/02/21 07:03:50;;;;;;;17.13;6.20;;;;;;;;;;5072378;28;20070;-64
2024/02/21 07:06:16;;;;;;;17.95;5.82;;;;;;;;;;5062768;28;20021;-65
2024/02/21 07:08:42;;;;;;;17.63;5.50;;;;;;;;;;5068017;28;20410;-64
2024/02/21 07:11:08;;;;;;;18.33;5.93;;;;;;;;;;5070128;28;20028;-63
2024/02/21 07:13:34;;;;;;;18.60;6.75;;;;;;;;;;5067085;28;20104;-65
2024/02/21 07:16:00;;;;;;;18.67;5.85;;;;;;;;;;5067515;28;20071;-64
2024/02/21 07:18:26;;;;;;;22.58;4.97;;;;;;;;;;5069422;28;20034;-64
2024/02/21 07:20:52;;;;;;;16.23;4.95;;;;;;;;;;5065956;28;20482;-66
2024/02/21 07:23:19;;;;;;;20.70;5.97;;;;;;;;;;5069057;28;20036;-64
2024/02/21 07:25:45;;;;;;;18.98;5.03;;;;;;;;;;5071041;28;20024;-64
2024/02/21 07:28:11;;;;;;;15.00;4.78;;;;;;;;;;5066934;28;20028;-63
2024/02/21 07:30:36;;;;;;;16.85;4.53;;;;;;;;;;5068066;28;20103;-64
2024/02/21 07:33:03;;;;;;;16.08;4.80;;;;;;;;;;5068298;28;20029;-64
2024/02/21 07:35:28;;;;;;;20.02;4.93;;;;;;;;;;5063466;28;20029;-64
2024/02/21 07:37:54;;;;;;;19.08;5.30;;;;;;;;;;5067513;28;20032;-64
2024/02/21 07:40:20;;;;;;;14.80;4.75;;;;;;;;;;5060793;28;20132;-64
2024/02/21 07:42:46;;;;;;;20.30;5.30;;;;;;;;;;5071501;28;20025;-64
2024/02/21 07:45:12;;;;;;;18.33;4.85;;;;;;;;;;5071850;28;20075;-64
2024/02/21 07:47:38;;;;;;;20.98;5.40;;;;;;;;;;5070772;28;20478;-64
2024/02/21 07:50:04;;;;;;;13.60;5.15;;;;;;;;;;5063773;28;20027;-64
2024/02/21 07:52:30;;;;;;;22.75;6.00;;;;;;;;;;5069140;28;20028;-64
2024/02/21 07:54:59;;;;;;;12.07;4.78;;;;;;;;;;5070748;28;20074;-62
2024/02/21 07:57:25;;;;;;;16.42;5.68;;;;;;;;;;5065098;28;20090;-64
2024/02/21 07:59:50;;;;;;;20.13;6.30;;;;;;;;;;5069723;28;20021;-64
2024/02/21 08:02:16;;;;;;;18.60;5.95;;;;;;;;;;5055415;28;20486;-64
2024/02/21 08:04:42;;;;;;;19.15;4.78;;;;;;;;;;5067397;28;20096;-64
2024/02/21 08:07:09;;;;;;;18.17;5.47;;;;;;;;;;5070146;28;20028;-65
2024/02/21 08:09:36;;;;;;;21.58;5.65;;;;;;;;;;5067292;28;20491;-65
2024/02/21 08:12:02;;;;;;;21.70;4.35;;;;;;;;;;5072874;28;20027;-63
2024/02/21 08:14:28;;;;;;;15.00;4.68;;;;;;;;;;5073122;28;20035;-63
2024/02/21 08:16:55;;;;;;;19.13;5.32;;;;;;;;;;5071064;28;20029;-63
2024/02/21 08:19:22;;;;;;;15.88;5.53;;;;;;;;;;5051498;28;20083;-63
2024/02/21 08:21:48;;;;;;;18.58;5.22;;;;;;;;;;5069128;28;20386;-63
2024/02/21 08:24:17;;;;;;;24.13;4.97;;;;;;;;;;5069124;28;20040;-63
2024/02/21 08:26:47;;;;;;;15.75;4.97;;;;;;;;;;5071048;28;20478;-63
2024/02/21 08:29:13;;;;;;;15.90;5.15;;;;;;;;;;5072896;28;20082;-61
2024/02/21 08:31:39;;;;;;;21.33;5.07;;;;;;;;;;5071284;28;20028;-62
2024/02/21 08:34:05;;;;;;;27.02;5.47;;;;;;;;;;5067320;28;20024;-62
2024/02/21 08:36:31;;;;;;;22.38;4.65;;;;;;;;;;5067727;28;20099;-62
2024/02/21 08:38:57;;;;;;;23.27;4.25;;;;;;;;;;5074483;28;20029;-63
2024/02/21 08:41:26;;;;;;;20.13;5.47;;;;;;;;;;5071795;28;20038;-62
2024/02/21 08:43:53;;;;;;;13.20;4.63;;;;;;;;;;5064666;28;20017;-64
2024/02/21 08:46:19;;;;;;;14.85;4.60;;;;;;;;;;5067899;28;21242;-63
2024/02/21 08:48:48;;;;;;;18.42;4.43;;;;;;;;;;5067126;28;20111;-62
2024/02/21 08:51:14;;;;;;;21.85;5.07;;;;;;;;;;5071692;28;20086;-61
2024/02/21 08:53:40;;;;;;;13.40;4.32;;;;;;;;;;5066186;28;20090;-62
2024/02/21 08:56:10;;;;;;;15.88;3.97;;;;;;;;;;5050395;28;20033;-64
2024/02/21 08:58:39;;;;;;;13.63;4.13;;;;;;;;;;5074020;28;20039;-62
2024/02/21 09:01:06;;;;;;;22.77;5.22;;;;;;;;;;5068755;28;20032;-63
2024/02/21 09:03:33;;;;;;;14.20;4.18;;;;;;;;;;5067068;28;20027;-63
2024/02/21 09:05:59;;;;;;;21.85;5.05;;;;;;;;;;5067454;28;20044;-63
2024/02/21 09:08:25;;;;;;;19.30;5.85;;;;;;;;;;5074828;28;20036;-63
2024/02/21 09:10:51;;;;;;;19.40;4.15;;;;;;;;;;5067975;28;20074;-63
2024/02/21 09:13:17;;;;;;;10.77;3.35;;;;;;;;;;5074196;28;20025;-64
2024/02/21 09:15:43;;;;;;;14.93;4.40;;;;;;;;;;5067699;28;20075;-63
2024/02/21 09:18:09;;;;;;;16.95;4.07;;;;;;;;;;5067333;28;20052;-62
2024/02/21 09:20:35;;;;;;;13.50;4.32;;;;;;;;;;5065481;28;20099;-63
2024/02/21 09:23:01;;;;;;;20.45;4.55;;;;;;;;;;5070651;28;20020;-63
2024/02/21 09:25:28;;;;;;;26.15;5.18;;;;;;;;;;5065207;28;20468;-63
2024/02/21 09:27:54;;;;;;;12.18;4.20;;;;;;;;;;5068512;28;20041;-63
2024/02/21 09:30:21;;;;;;;14.38;4.07;;;;;;;;;;5063679;28;20119;-64
2024/02/21 09:32:48;;;;;;;20.27;4.00;;;;;;;;;;5070285;28;20402;-64
2024/02/21 09:35:14;;;;;;;16.85;4.55;;;;;;;;;;5066236;28;20032;-64
2024/02/21 09:37:40;;;;;;;10.85;3.92;;;;;;;;;;5066850;28;20044;-63
2024/02/21 09:40:06;;;;;;;15.57;4.13;;;;;;;;;;5069550;28;20055;-62
2024/02/21 09:42:39;;;;;;;12.93;3.53;;;;;;;;;;5063036;28;20559;-63
2024/02/21 09:45:08;;;;;;;18.35;4.53;;;;;;;;;;5066487;28;20059;-63
2024/02/21 09:47:39;;;;;;;12.75;4.20;;;;;;;;;;5067257;28;20032;-62
2024/02/21 09:50:05;;;;;;;20.48;4.40;;;;;;;;;;5067243;28;20032;-62
2024/02/21 09:52:31;;;;;;;21.00;4.38;;;;;;;;;;5068374;28;20035;-63
2024/02/21 09:54:59;;;;;;;18.52;5.18;;;;;;;;;;5070332;28;20036;-63
2024/02/21 09:57:25;;;;;;;14.68;3.80;;;;;;;;;;5065158;28;20048;-63
2024/02/21 09:59:51;;;;;;;12.18;3.67;;;;;;;;;;5072740;28;20486;-63
2024/02/21 10:02:17;;;;;;;16.30;4.07;;;;;;;;;;5066480;28;20029;-63
2024/02/21 10:04:43;;;;;;;9.07;3.72;;;;;;;;;;5069825;28;20028;-62
2024/02/21 10:07:09;;;;;;;23.20;3.90;;;;;;;;;;5065716;28;20028;-62
2024/02/21 10:09:35;;;;;;;16.35;3.97;;;;;;;;;;5072385;28;20024;-63
2024/02/21 10:12:11;;;;;;;12.60;3.83;;;;;;;;;;5063844;28;20372;-63
2024/02/21 10:14:37;;;;;;;13.00;4.00;;;;;;;;;;5073711;28;20044;-63
2024/02/21 10:17:09;;;;;;;16.50;3.78;;;;;;;;;;5066531;28;20111;-63
2024/02/21 10:19:34;;;;;;;15.68;3.63;;;;;;;;;;5064592;28;20513;-62
2024/02/21 10:22:00;;;;;;;11.75;3.78;;;;;;;;;;5068191;28;20060;-62
2024/02/21 10:24:28;;;;;;;14.68;3.90;;;;;;;;;;5075489;28;20031;-62
2024/02/21 10:27:04;;;;;;;13.13;3.20;;;;;;;;;;5065841;28;20501;-63
2024/02/21 10:29:31;;;;;;;14.10;3.78;;;;;;;;;;5069370;28;20036;-63
2024/02/21 10:32:10;;;;;;;18.50;4.43;;;;;;;;;;5066569;28;20025;-63
2024/02/21 10:34:37;;;;;;;13.70;3.70;;;;;;;;;;5071201;28;20020;-63
2024/02/21 10:37:09;;;;;;;11.57;3.78;;;;;;;;;;5067344;28;20040;-63
2024/02/21 10:39:39;;;;;;;20.02;3.50;;;;;;;;;;5059635;28;20024;-62
2024/02/21 10:42:05;;;;;;;14.05;3.60;;;;;;;;;;5064683;28;20502;-62
2024/02/21 10:44:33;;;;;;;9.98;3.90;;;;;;;;;;5068604;28;20033;-62
2024/02/21 10:47:00;;;;;;;13.45;3.17;;;;;;;;;;5067728;28;20519;-61
2024/02/21 10:49:27;;;;;;;16.42;3.85;;;;;;;;;;5066658;28;20120;-62
2024/02/21 10:51:56;;;;;;;13.18;3.40;;;;;;;;;;5064899;28;20025;-63
2024/02/21 10:54:40;;;;;;;16.17;3.72;;;;;;;;;;5065831;28;20025;-62
2024/02/21 10:57:07;;;;;;;13.30;4.15;;;;;;;;;;5060070;28;20115;-62
2024/02/21 10:59:34;;;;;;;14.57;3.35;;;;;;;;;;5068770;28;20066;-61
2024/02/21 11:02:00;;;;;;;13.70;3.22;;;;;;;;;;5074164;28;20043;-62
2024/02/21 11:04:26;;;;;;;14.07;3.78;;;;;;;;;;5065441;28;20032;-62
2024/02/21 11:06:52;;;;;;;23.10;3.60;;;;;;;;;;5064071;28;20025;-62
2024/02/21 11:09:18;;;;;;;15.55;4.40;;;;;;;;;;5064819;28;20168;-62
2024/02/21 11:11:45;;;;;;;13.90;2.83;;;;;;;;;;5060970;28;20023;-61
2024/02/21 11:14:13;;;;;;;8.73;3.03;;;;;;;;;;5065949;28;20393;-61
2024/02/21 11:16:42;;;;;;;16.40;3.33;;;;;;;;;;5067941;28;20157;-62
2024/02/21 11:19:09;;;;;;;11.13;2.90;;;;;;;;;;5066181;28;20086;-63
2024/02/21 11:21:36;;;;;;;16.52;2.83;;;;;;;;;;5068175;28;20025;-61
2024/02/21 11:24:02;;;;;;;15.98;3.10;;;;;;;;;;5065077;28;20032;-62
2024/02/21 11:26:29;;;;;;;24.73;7.65;;;;;;;;;;5061598;28;20025;-61
2024/02/21 11:29:05;;;;;;;20.42;7.00;;;;;;;;;;5064149;28;20021;-62
2024/02/21 11:31:41;;;;;;;9.25;3.75;;;;;;;;;;5061802;28;20020;-62
2024/02/21 11:34:11;;;;;;;17.13;3.60;;;;;;;;;;5065929;28;20079;-62
2024/02/21 11:36:47;;;;;;;11.05;3.85;;;;;;;;;;5065259;28;20028;-61
2024/02/21 11:39:12;;;;;;;13.75;5.18;;;;;;;;;;5067611;28;20032;-62
2024/02/21 11:41:38;;;;;;;11.45;3.83;;;;;;;;;;5071016;28;20074;-61
2024/02/21 11:44:04;;;;;;;11.93;3.80;;;;;;;;;;5069366;28;20112;-62
2024/02/21 11:46:31;;;;;;;20.92;5.38;;;;;;;;;;5074345;28;20021;-62
2024/02/21 11:49:00;;;;;;;20.58;6.10;;;;;;;;;;5073752;28;20032;-63
2024/02/21 11:51:26;;;;;;;9.80;4.95;;;;;;;;;;5074362;28;20031;-61
2024/02/21 11:53:53;;;;;;;11.68;4.47;;;;;;;;;;5072749;28;20029;-62
2024/02/21 11:56:19;;;;;;;14.07;3.45;;;;;;;;;;5074997;28;20549;-62
2024/02/21 11:58:47;;;;;;;17.85;3.25;;;;;;;;;;5071057;28;20032;-62
2024/02/21 12:01:13;;;;;;;12.13;3.45;;;;;;;;;;5068832;28;20023;-63
2024/02/21 12:03:41;;;;;;;14.63;3.83;;;;;;;;;;5066389;28;20041;-61
2024/02/21 12:06:07;;;;;;;13.10;4.18;;;;;;;;;;5061748;28;20032;-62
2024/02/21 12:08:43;;;;;;;13.30;3.70;;;;;;;;;;5066277;28;20033;-62
2024/02/21 12:11:22;;;;;;;13.38;3.63;;;;;;;;;;5068396;28;20025;-61
2024/02/21 12:13:48;;;;;;;20.02;4.07;;;;;;;;;;5060312;28;20021;-60
2024/02/21 12:16:18;;;;;;;14.93;4.72;;;;;;;;;;5064999;28;20048;-61
2024/02/21 12:18:44;;;;;;;22.95;5.60;;;;;;;;;;5062749;28;20119;-62
2024/02/21 12:21:10;;;;;;;36.08;11.25;;;;;;;;;;5064906;28;20370;-61
2024/02/21 12:23:38;;;;;;;14.95;4.60;;;;;;;;;;5065060;28;20024;-62
2024/02/21 12:26:04;;;;;;;9.77;4.10;;;;;;;;;;5069257;28;20083;-62
2024/02/21 12:28:30;;;;;;;14.35;3.22;;;;;;;;;;5067679;28;20031;-60
2024/02/21 12:30:56;;;;;;;12.07;4.22;;;;;;;;;;5062946;28;20028;-62
2024/02/21 12:33:22;;;;;;;18.45;3.13;;;;;;;;;;5058807;28;20078;-62
2024/02/21 12:35:49;;;;;;;15.15;3.13;;;;;;;;;;5059729;28;20514;-62
2024/02/21 12:38:15;;;;;;;17.02;4.93;;;;;;;;;;5056278;28;20541;-61
2024/02/21 12:40:41;;;;;;;13.38;4.47;;;;;;;;;;5058152;28;20108;-62
2024/02/21 12:43:07;;;;;;;13.60;3.72;;;;;;;;;;5058359;28;20107;-60
2024/02/21 12:45:34;;;;;;;11.10;4.75;;;;;;;;;;5056023;28;20025;-62
2024/02/21 12:48:00;;;;;;;9.07;3.05;;;;;;;;;;5056102;28;20029;-61
2024/02/21 12:50:26;;;;;;;12.73;4.55;;;;;;;;;;5062946;28;20100;-61
2024/02/21 12:52:52;;;;;;;11.25;3.58;;;;;;;;;;5055717;28;20029;-62
2024/02/21 12:55:18;;;;;;;19.23;3.92;;;;;;;;;;5067293;28;20119;-61
2024/02/21 12:57:43;;;;;;;19.38;3.65;;;;;;;;;;5067602;28;20028;-62
2024/02/21 13:00:11;;;;;;;12.52;3.60;;;;;;;;;;5060306;28;20048;-62
2024/02/21 13:02:37;;;;;;;16.40;3.58;;;;;;;;;;5067255;28;20085;-60
2024/02/21 13:05:03;;;;;;;15.98;3.28;;;;;;;;;;5068497;28;20037;-62
2024/02/21 13:07:32;;;;;;;12.65;3.70;;;;;;;;;;5063502;28;20548;-62
2024/02/21 13:09:58;;;;;;;9.25;3.60;;;;;;;;;;5060022;28;20024;-63
2024/02/21 13:12:26;;;;;;;9.52;4.10;;;;;;;;;;5067548;28;20027;-62
2024/02/21 13:14:52;;;;;;;18.73;4.57;;;;;;;;;;5062859;28;20048;-63
2024/02/21 13:17:18;;;;;;;13.45;4.75;;;;;;;;;;5061461;28;20414;-62
2024/02/21 13:19:44;;;;;;;17.27;4.55;;;;;;;;;;5067308;28;20102;-61
2024/02/21 13:22:10;;;;;;;9.25;3.85;;;;;;;;;;5068908;28;20044;-60
2024/02/21 13:24:35;;;;;;;12.02;3.40;;;;;;;;;;5067188;28;20033;-62
2024/02/21 13:27:03;;;;;;;12.57;3.83;;;;;;;;;;5061731;28;20494;-64
2024/02/21 13:29:29;;;;;;;11.27;4.10;;;;;;;;;;5065243;28;20017;-63
2024/02/21 13:31:55;;;;;;;11.55;3.42;;;;;;;;;;5070000;28;20043;-62
2024/02/21 13:34:21;;;;;;;14.63;3.20;;;;;;;;;;5073371;28;20025;-60
2024/02/21 13:36:47;;;;;;;13.75;3.35;;;;;;;;;;5074179;28;20434;-61
2024/02/21 13:39:15;;;;;;;17.67;3.50;;;;;;;;;;5066487;28;20683;-60
2024/02/21 13:41:42;;;;;;;9.02;3.15;;;;;;;;;;5067416;28;20024;-61
2024/02/21 13:44:09;;;;;;;16.70;3.47;;;;;;;;;;5064308;28;20502;-61
2024/02/21 13:46:35;;;;;;;18.70;3.05;;;;;;;;;;5060497;28;20021;-62
2024/02/21 13:49:06;;;;;;;7.78;3.15;;;;;;;;;;5064943;28;20029;-62
2024/02/21 13:51:32;;;;;;;11.35;3.00;;;;;;;;;;5067798;28;20025;-63
2024/02/21 13:53:59;;;;;;;9.38;3.08;;;;;;;;;;5068052;28;20025;-62
2024/02/21 13:56:25;;;;;;;16.88;3.22;;;;;;;;;;5071481;28;20032;-62
2024/02/21 13:58:51;;;;;;;17.83;2.88;;;;;;;;;;5072880;28;20165;-62
2024/02/21 14:01:18;;;;;;;12.93;2.90;;;;;;;;;;5071522;28;20099;-63
2024/02/21 14:03:44;;;;;;;8.60;2.70;;;;;;;;;;5066306;28;20502;-62
2024/02/21 14:06:10;;;;;;;12.68;2.78;;;;;;;;;;5072796;28;20059;-63
2024/02/21 14:08:37;;;;;;;11.10;3.42;;;;;;;;;;5074728;28;20151;-62
2024/02/21 14:11:03;;;;;;;13.43;3.88;;;;;;;;;;5071475;28;20397;-61
2024/02/21 14:13:29;;;;;;;9.68;2.92;;;;;;;;;;5066266;28;20025;-62
2024/02/21 14:15:55;;;;;;;9.20;3.63;;;;;;;;;;5053771;28;20031;-62
2024/02/21 14:18:21;;;;;;;9.00;2.60;;;;;;;;;;5065111;28;20021;-62
2024/02/21 14:20:47;;;;;;;7.45;2.55;;;;;;;;;;5068829;28;20036;-61
2024/02/21 14:23:13;;;;;;;10.13;2.85;;;;;;;;;;5071082;28;20032;-62
2024/02/21 14:25:41;;;;;;;9.40;2.53;;;;;;;;;;5077144;28;20024;-62
2024/02/21 14:28:11;;;;;;;16.35;3.47;;;;;;;;;;5062821;28;20031;-63